Pink Coral — 9HPY9 — position and weather

sailwx.info

Track history (hours):
 
Tides and Currents Weather Stations Pressure Air Temp Water Temp Dewpoint Dewpoint Depression Visibility Wind Speed Wind Dir Waves Ship Positions

Pink Coral

Last reported at 2016-May-26 05:26 UTC. Time now 2016-May-26 08:52 UTC.
Position N 36°39' E 000°05'.

Length 183 m; draft 12 m.

Type: Ship (hazmat cat A). MMSI: 249344000.

Date/timePositionNaut miles runAvg speedWind from/ knotsBaromVisibWave heightAir tempDewpointWater temp
2016-May-26 05:26N 36°39' E 000°05'1513.7
2016-May-26 04:21N 36°36' W 000°13'1114.0
2016-May-26 03:33N 36°34' W 000°27'1414.4
2016-May-26 02:33N 36°31' W 000°44'21914.2
2016-May-25 11:12N 35°59' W 005°12'1016.0
2016-May-25 10:34N 35°59' W 005°25'26511.5
2016-May-24 11:32N 38°21' W 010°05'1313.6
2016-May-24 10:33N 38°34' W 010°10'1313.2
2016-May-24 09:33N 38°48' W 010°11'1413.3
2016-May-24 08:30N 39°01' W 010°11'10412.8
2016-May-24 00:24N 40°45' W 010°11'53412.7
2016-May-22 06:30N 49°01' W 005°32'7312.3
2016-May-22 00:31N 49°38' W 003°54'1414.5
2016-May-21 23:33N 49°45' W 003°36'1414.2
2016-May-21 22:33N 49°52' W 003°17'1313.0
2016-May-21 21:34N 49°59' W 002°59'1211.8
2016-May-21 20:32N 50°02' W 002°41'1110.8
2016-May-21 19:33N 50°05' W 002°26'1110.4
2016-May-21 18:33N 50°08' W 002°10'5513.7
2016-May-21 14:33N 50°23' W 000°47'1615.7
2016-May-21 13:33N 50°28' W 000°24'1514.7
2016-May-21 12:33N 50°32' W 000°02'1413.7
2016-May-21 11:34N 50°36' E 000°19'3712.3
2016-May-21 08:31N 50°55' E 001°10'1414.2
2016-May-21 07:33N 51°04' E 001°26'1615.6
2016-May-21 06:33N 51°14' E 001°45'1414.1
2016-May-21 05:33N 51°25' E 001°58'1313.3
2016-May-21 04:33N 51°20' E 002°18'1313.0
2016-May-21 03:33N 51°23' E 002°39'1111.2
2016-May-21 02:33N 51°23' E 002°57'1211.7
2016-May-21 01:33N 51°25' E 003°15'1211.7
2016-May-21 00:33N 51°26' E 003°34'7 7.1
2016-May-20 23:33N 51°22' E 003°44'9 8.6
2016-May-20 22:33N 51°25' E 003°57'7 7.5
2016-May-20 21:33N 51°23' E 004°09'6 5.5
2016-May-20 20:33N 51°21' E 004°17'0 0.0
2016-May-20 19:33N 51°21' E 004°17'2 2.3
2016-May-20 18:33N 51°19' E 004°19'3 2.9
2016-May-20 17:33N 51°16' E 004°22'0 0.1
2016-May-20 16:31N 51°16' E 004°21'0 0.0
2016-May-20 15:28N 51°16' E 004°21'0 0.0
2016-May-20 14:31N 51°16' E 004°21'0 0.0
2016-May-20 13:34N 51°16' E 004°21'0 0.0
2016-May-20 12:31N 51°16' E 004°21'0 0.0
2016-May-20 11:31N 51°16' E 004°21'0 0.0
2016-May-20 10:34N 51°16' E 004°21'0 0.0
2016-May-20 09:31N 51°16' E 004°21'0 0.0
2016-May-20 08:31N 51°16' E 004°21'0 0.0
2016-May-20 07:31N 51°16' E 004°21'0 0.0
2016-May-20 06:34N 51°16' E 004°21'0 0.0
2016-May-20 05:25N 51°16' E 004°21'0 0.0
2016-May-20 04:31N 51°16' E 004°21'0 0.0
2016-May-20 03:31N 51°16' E 004°21'0 0.0
2016-May-20 02:31N 51°16' E 004°21'0 0.0
2016-May-20 01:34N 51°16' E 004°21'0 0.0
2016-May-20 00:33N 51°16' E 004°21'0 0.0
2016-May-19 23:27N 51°16' E 004°21'0 0.0
2016-May-19 22:33N 51°16' E 004°21'0 0.0
2016-May-19 21:31N 51°16' E 004°21'0 0.0
2016-May-19 20:34N 51°16' E 004°21'0 0.0
2016-May-19 19:31N 51°16' E 004°21'0 0.0
2016-May-19 18:33N 51°16' E 004°21'0 0.0
2016-May-19 17:33N 51°16' E 004°21'0 0.0
2016-May-19 16:30N 51°16' E 004°21'0 0.0
2016-May-19 15:33N 51°16' E 004°21'0 0.0
2016-May-19 14:33N 51°16' E 004°21'0 0.0
2016-May-19 13:33N 51°16' E 004°21'0 0.0
2016-May-19 12:33N 51°16' E 004°21'0 0.0
2016-May-19 11:33N 51°16' E 004°21'0 0.0
2016-May-19 10:33N 51°16' E 004°21'0 0.0
2016-May-19 09:30N 51°16' E 004°21'0 0.0
2016-May-19 08:33N 51°16' E 004°21'0 0.0
2016-May-19 07:33N 51°16' E 004°21'0 0.0
2016-May-19 06:33N 51°16' E 004°21'0 0.0
2016-May-19 05:33N 51°16' E 004°21'0 0.0
2016-May-19 04:33N 51°16' E 004°21'0 0.0
2016-May-19 03:33N 51°16' E 004°21'0 0.0
2016-May-19 02:33N 51°16' E 004°21'0 0.0
2016-May-19 01:33N 51°16' E 004°21'0 0.0
2016-May-19 00:33N 51°16' E 004°21'0 0.0
2016-May-18 23:33N 51°16' E 004°21'0 0.0
2016-May-18 22:33N 51°16' E 004°21'0 0.0
2016-May-18 21:28N 51°16' E 004°21'0 0.0
2016-May-18 20:31N 51°16' E 004°21'0 0.0
2016-May-18 19:31N 51°16' E 004°21'0 0.0
2016-May-18 18:31N 51°16' E 004°21'0 0.0
2016-May-18 17:31N 51°16' E 004°21'0 0.0
2016-May-18 16:31N 51°16' E 004°21'0 0.0
2016-May-18 15:31N 51°16' E 004°21'0 0.0
2016-May-18 14:31N 51°16' E 004°21'0 0.0
2016-May-18 13:28N 51°16' E 004°21'0 0.0
2016-May-18 12:28N 51°16' E 004°21'0 0.0
2016-May-18 11:31N 51°16' E 004°21'0 0.0
2016-May-18 10:31N 51°16' E 004°21'0 0.0
2016-May-18 09:25N 51°16' E 004°21'0 0.0
2016-May-18 08:28N 51°16' E 004°21'0 0.0
2016-May-18 07:31N 51°16' E 004°21'0 0.0
2016-May-18 06:31N 51°16' E 004°21'0 0.0
2016-May-18 05:31N 51°16' E 004°21'0 0.0
2016-May-18 04:31N 51°16' E 004°21'0 0.0
2016-May-18 03:25N 51°16' E 004°21'0 0.0
2016-May-18 02:31N 51°16' E 004°21'0 0.0
2016-May-18 01:31N 51°16' E 004°21'0 0.0
2016-May-18 00:31N 51°16' E 004°21'0 0.0
2016-May-17 23:31N 51°16' E 004°21'0 0.0
2016-May-17 22:31N 51°16' E 004°21'0 0.1
2016-May-17 21:33N 51°16' E 004°22'5 5.3
2016-May-17 20:33N 51°21' E 004°17'0 0.0
2016-May-17 19:33N 51°21' E 004°17'4 4.2
2016-May-17 18:33N 51°24' E 004°12'9 9.0
2016-May-17 17:33N 51°25' E 003°58'9 9.3
2016-May-17 16:33N 51°22' E 003°44'9 8.5
2016-May-17 15:33N 51°27' E 003°32'1211.7
2016-May-17 14:33N 51°37' E 003°22'12 1.4
2016-May-17 06:28N 51°48' E 003°21'0 0.1
2016-May-17 04:16N 51°48' E 003°21'0 0.0
2016-May-17 00:31N 51°48' E 003°21'0 0.0
2016-May-16 23:31N 51°48' E 003°21'0 0.0
2016-May-16 18:13N 51°48' E 003°21'0 0.0
2016-May-16 17:31N 51°48' E 003°21'0 0.0
2016-May-16 15:28N 51°48' E 003°21'0 0.1
2016-May-16 13:04N 51°48' E 003°21'  
Track history (hours):
 
Tides and Currents Weather Stations Pressure Air Temp Water Temp Dewpoint Dewpoint Depression Visibility Wind Speed Wind Dir Waves Ship Positions

Pink Coral

Last reported at 2016-May-26 05:26 UTC. Time now 2016-May-26 08:52 UTC.
Position N 36°39' E 000°05'.

Length 183 m; draft 12 m.

Type: Ship (hazmat cat A). MMSI: 249344000.

Date/timePositionNaut miles runAvg speedWind from/ knotsBaromVisibWave heightAir tempDewpointWater temp
2016-May-26 05:26N 36°39' E 000°05'1513.7
2016-May-26 04:21N 36°36' W 000°13'1114.0
2016-May-26 03:33N 36°34' W 000°27'1414.4
2016-May-26 02:33N 36°31' W 000°44'21914.2
2016-May-25 11:12N 35°59' W 005°12'1016.0
2016-May-25 10:34N 35°59' W 005°25'26511.5
2016-May-24 11:32N 38°21' W 010°05'1313.6
2016-May-24 10:33N 38°34' W 010°10'1313.2
2016-May-24 09:33N 38°48' W 010°11'1413.3
2016-May-24 08:30N 39°01' W 010°11'10412.8
2016-May-24 00:24N 40°45' W 010°11'53412.7
2016-May-22 06:30N 49°01' W 005°32'7312.3
2016-May-22 00:31N 49°38' W 003°54'1414.5
2016-May-21 23:33N 49°45' W 003°36'1414.2
2016-May-21 22:33N 49°52' W 003°17'1313.0
2016-May-21 21:34N 49°59' W 002°59'1211.8
2016-May-21 20:32N 50°02' W 002°41'1110.8
2016-May-21 19:33N 50°05' W 002°26'1110.4
2016-May-21 18:33N 50°08' W 002°10'5513.7
2016-May-21 14:33N 50°23' W 000°47'1615.7
2016-May-21 13:33N 50°28' W 000°24'1514.7
2016-May-21 12:33N 50°32' W 000°02'1413.7
2016-May-21 11:34N 50°36' E 000°19'3712.3
2016-May-21 08:31N 50°55' E 001°10'1414.2
2016-May-21 07:33N 51°04' E 001°26'1615.6
2016-May-21 06:33N 51°14' E 001°45'1414.1
2016-May-21 05:33N 51°25' E 001°58'1313.3
2016-May-21 04:33N 51°20' E 002°18'1313.0
2016-May-21 03:33N 51°23' E 002°39'1111.2
2016-May-21 02:33N 51°23' E 002°57'1211.7
2016-May-21 01:33N 51°25' E 003°15'1211.7
2016-May-21 00:33N 51°26' E 003°34'7 7.1
2016-May-20 23:33N 51°22' E 003°44'9 8.6
2016-May-20 22:33N 51°25' E 003°57'7 7.5
2016-May-20 21:33N 51°23' E 004°09'6 5.5
2016-May-20 20:33N 51°21' E 004°17'0 0.0
2016-May-20 19:33N 51°21' E 004°17'2 2.3
2016-May-20 18:33N 51°19' E 004°19'3 2.9
2016-May-20 17:33N 51°16' E 004°22'0 0.1
2016-May-20 16:31N 51°16' E 004°21'0 0.0
2016-May-20 15:28N 51°16' E 004°21'0 0.0
2016-May-20 14:31N 51°16' E 004°21'0 0.0
2016-May-20 13:34N 51°16' E 004°21'0 0.0
2016-May-20 12:31N 51°16' E 004°21'0 0.0
2016-May-20 11:31N 51°16' E 004°21'0 0.0
2016-May-20 10:34N 51°16' E 004°21'0 0.0
2016-May-20 09:31N 51°16' E 004°21'0 0.0
2016-May-20 08:31N 51°16' E 004°21'0 0.0
2016-May-20 07:31N 51°16' E 004°21'0 0.0
2016-May-20 06:34N 51°16' E 004°21'0 0.0
2016-May-20 05:25N 51°16' E 004°21'0 0.0
2016-May-20 04:31N 51°16' E 004°21'0 0.0
2016-May-20 03:31N 51°16' E 004°21'0 0.0
2016-May-20 02:31N 51°16' E 004°21'0 0.0
2016-May-20 01:34N 51°16' E 004°21'0 0.0
2016-May-20 00:33N 51°16' E 004°21'0 0.0
2016-May-19 23:27N 51°16' E 004°21'0 0.0
2016-May-19 22:33N 51°16' E 004°21'0 0.0
2016-May-19 21:31N 51°16' E 004°21'0 0.0
2016-May-19 20:34N 51°16' E 004°21'0 0.0
2016-May-19 19:31N 51°16' E 004°21'0 0.0
2016-May-19 18:33N 51°16' E 004°21'0 0.0
2016-May-19 17:33N 51°16' E 004°21'0 0.0
2016-May-19 16:30N 51°16' E 004°21'0 0.0
2016-May-19 15:33N 51°16' E 004°21'0 0.0
2016-May-19 14:33N 51°16' E 004°21'0 0.0
2016-May-19 13:33N 51°16' E 004°21'0 0.0
2016-May-19 12:33N 51°16' E 004°21'0 0.0
2016-May-19 11:33N 51°16' E 004°21'0 0.0
2016-May-19 10:33N 51°16' E 004°21'0 0.0
2016-May-19 09:30N 51°16' E 004°21'0 0.0
2016-May-19 08:33N 51°16' E 004°21'0 0.0
2016-May-19 07:33N 51°16' E 004°21'0 0.0
2016-May-19 06:33N 51°16' E 004°21'0 0.0
2016-May-19 05:33N 51°16' E 004°21'0 0.0
2016-May-19 04:33N 51°16' E 004°21'0 0.0
2016-May-19 03:33N 51°16' E 004°21'0 0.0
2016-May-19 02:33N 51°16' E 004°21'0 0.0
2016-May-19 01:33N 51°16' E 004°21'0 0.0
2016-May-19 00:33N 51°16' E 004°21'0 0.0
2016-May-18 23:33N 51°16' E 004°21'0 0.0
2016-May-18 22:33N 51°16' E 004°21'0 0.0
2016-May-18 21:28N 51°16' E 004°21'0 0.0
2016-May-18 20:31N 51°16' E 004°21'0 0.0
2016-May-18 19:31N 51°16' E 004°21'0 0.0
2016-May-18 18:31N 51°16' E 004°21'0 0.0
2016-May-18 17:31N 51°16' E 004°21'0 0.0
2016-May-18 16:31N 51°16' E 004°21'0 0.0
2016-May-18 15:31N 51°16' E 004°21'0 0.0
2016-May-18 14:31N 51°16' E 004°21'0 0.0
2016-May-18 13:28N 51°16' E 004°21'0 0.0
2016-May-18 12:28N 51°16' E 004°21'0 0.0
2016-May-18 11:31N 51°16' E 004°21'0 0.0
2016-May-18 10:31N 51°16' E 004°21'0 0.0
2016-May-18 09:25N 51°16' E 004°21'0 0.0
2016-May-18 08:28N 51°16' E 004°21'0 0.0
2016-May-18 07:31N 51°16' E 004°21'0 0.0
2016-May-18 06:31N 51°16' E 004°21'0 0.0
2016-May-18 05:31N 51°16' E 004°21'0 0.0
2016-May-18 04:31N 51°16' E 004°21'0 0.0
2016-May-18 03:25N 51°16' E 004°21'0 0.0
2016-May-18 02:31N 51°16' E 004°21'0 0.0
2016-May-18 01:31N 51°16' E 004°21'0 0.0
2016-May-18 00:31N 51°16' E 004°21'0 0.0
2016-May-17 23:31N 51°16' E 004°21'0 0.0
2016-May-17 22:31N 51°16' E 004°21'0 0.1
2016-May-17 21:33N 51°16' E 004°22'5 5.3
2016-May-17 20:33N 51°21' E 004°17'0 0.0
2016-May-17 19:33N 51°21' E 004°17'4 4.2
2016-May-17 18:33N 51°24' E 004°12'9 9.0
2016-May-17 17:33N 51°25' E 003°58'9 9.3
2016-May-17 16:33N 51°22' E 003°44'9 8.5
2016-May-17 15:33N 51°27' E 003°32'1211.7
2016-May-17 14:33N 51°37' E 003°22'12 1.4
2016-May-17 06:28N 51°48' E 003°21'0 0.1
2016-May-17 04:16N 51°48' E 003°21'0 0.0
2016-May-17 00:31N 51°48' E 003°21'0 0.0
2016-May-16 23:31N 51°48' E 003°21'0 0.0
2016-May-16 18:13N 51°48' E 003°21'0 0.0
2016-May-16 17:31N 51°48' E 003°21'0 0.0
2016-May-16 15:28N 51°48' E 003°21'0 0.1
2016-May-16 13:04N 51°48' E 003°21'  

Dump ship's entire track history